createdAt,value
2018-12-15T00:01:55.584Z,-0.30
2018-12-15T00:04:23.996Z,-0.40
2018-12-15T00:06:52.378Z,-0.20
2018-12-15T00:09:20.720Z,-0.20
2018-12-15T00:11:49.124Z,-0.40
2018-12-15T00:14:17.546Z,-0.30
2018-12-15T00:16:52.680Z,-0.30
2018-12-15T00:19:21.059Z,-0.30
2018-12-15T00:21:49.415Z,-0.20
2018-12-15T00:24:17.784Z,-0.30
2018-12-15T00:26:46.162Z,-0.30
2018-12-15T00:29:14.514Z,-0.20
2018-12-15T00:31:42.904Z,-0.10
2018-12-15T00:34:11.268Z,-0.20
2018-12-15T00:36:41.031Z,-0.20
2018-12-15T00:39:09.482Z,-0.60
2018-12-15T00:41:37.841Z,-0.50
2018-12-15T00:44:06.235Z,-0.40
2018-12-15T00:46:34.640Z,-0.30
2018-12-15T00:49:02.989Z,-0.40
2018-12-15T00:51:31.456Z,-0.30
2018-12-15T00:54:00.157Z,-0.20
2018-12-15T00:56:28.627Z,-0.60
2018-12-15T00:58:57.040Z,-0.50
2018-12-15T01:01:25.580Z,-0.30
2018-12-15T01:03:53.959Z,-0.20
2018-12-15T01:06:22.652Z,-0.30
2018-12-15T01:08:51.025Z,-0.40
2018-12-15T01:11:19.404Z,-0.30
2018-12-15T01:13:47.827Z,-0.30
2018-12-15T01:16:16.215Z,-0.20
2018-12-15T01:18:44.620Z,-0.30
2018-12-15T01:21:13.215Z,-0.30
2018-12-15T01:23:41.667Z,-0.20
2018-12-15T01:26:10.216Z,-0.20
2018-12-15T01:28:38.551Z,-0.30
2018-12-15T01:31:07.388Z,-0.40
2018-12-15T01:33:35.724Z,-0.40
2018-12-15T01:36:04.242Z,-0.50
2018-12-15T01:38:32.768Z,-0.50
2018-12-15T01:41:01.170Z,-0.60
2018-12-15T01:43:29.496Z,-0.50
2018-12-15T01:45:57.923Z,-0.50
2018-12-15T01:48:26.290Z,-0.60
2018-12-15T01:50:54.775Z,-0.50
2018-12-15T01:53:23.247Z,-0.50
2018-12-15T01:55:51.603Z,-0.40
2018-12-15T01:58:19.939Z,-0.40
2018-12-15T02:00:48.337Z,-0.50
2018-12-15T02:03:16.766Z,-0.40
2018-12-15T02:05:45.160Z,-0.50
2018-12-15T02:08:13.625Z,-0.40
2018-12-15T02:10:42.308Z,-0.30
2018-12-15T02:13:10.627Z,-0.30
2018-12-15T02:15:38.995Z,-0.40
2018-12-15T02:18:07.497Z,-0.50
2018-12-15T02:20:35.892Z,-0.50
2018-12-15T02:23:04.251Z,-0.50
2018-12-15T02:25:32.696Z,-0.50
2018-12-15T02:28:01.050Z,-0.40
2018-12-15T02:30:29.484Z,-0.40
2018-12-15T02:32:57.921Z,-0.50
2018-12-15T02:35:26.277Z,-0.60
2018-12-15T02:37:54.663Z,-0.50
2018-12-15T02:40:23.048Z,-0.60
2018-12-15T02:42:51.401Z,-0.70
2018-12-15T02:45:19.870Z,-0.80
2018-12-15T02:47:48.234Z,-0.80
2018-12-15T02:50:16.656Z,-0.80
2018-12-15T02:52:45.235Z,-0.60
2018-12-15T02:55:14.256Z,-0.50
2018-12-15T02:57:42.644Z,-0.40
2018-12-15T03:00:12.006Z,-0.40
2018-12-15T03:02:40.315Z,-0.60
2018-12-15T03:05:08.829Z,-0.60
2018-12-15T03:07:37.183Z,-0.50
2018-12-15T03:10:05.943Z,-0.50
2018-12-15T03:12:34.311Z,-0.50
2018-12-15T03:15:02.795Z,-0.50
2018-12-15T03:17:31.128Z,-0.40
2018-12-15T03:20:01.670Z,-0.40
2018-12-15T03:22:30.566Z,-0.40
2018-12-15T03:24:58.934Z,-0.40
2018-12-15T03:27:27.328Z,-0.50
2018-12-15T03:29:55.722Z,-0.50
2018-12-15T03:32:24.048Z,-0.50
2018-12-15T03:34:52.479Z,-0.50
2018-12-15T03:37:20.827Z,-0.50
2018-12-15T03:39:49.257Z,-0.60
2018-12-15T03:42:17.872Z,-0.50
2018-12-15T03:44:46.196Z,-0.60
2018-12-15T03:47:14.590Z,-0.50
2018-12-15T03:49:42.978Z,-0.40
2018-12-15T03:52:11.390Z,-0.50
2018-12-15T03:54:39.777Z,-0.60
2018-12-15T03:57:08.145Z,-0.60
2018-12-15T03:59:36.758Z,-0.60
2018-12-15T04:02:05.680Z,-0.50
2018-12-15T04:04:34.145Z,-0.50
2018-12-15T04:07:02.533Z,-0.60
2018-12-15T04:09:30.888Z,-0.50
2018-12-15T04:11:59.197Z,-0.50
2018-12-15T04:14:27.572Z,-0.50
2018-12-15T04:16:55.924Z,-0.50
2018-12-15T04:19:24.312Z,-0.50
2018-12-15T04:21:52.773Z,-0.50
2018-12-15T04:24:21.223Z,-0.50
2018-12-15T04:26:49.562Z,-0.50
2018-12-15T04:29:18.030Z,-0.50
2018-12-15T04:31:46.468Z,-0.60
2018-12-15T04:34:14.890Z,-0.50
2018-12-15T04:36:43.259Z,-0.50
2018-12-15T04:39:11.744Z,-0.60
2018-12-15T04:41:40.102Z,-0.60
2018-12-15T04:44:08.567Z,-0.50
2018-12-15T04:46:36.915Z,-0.50
2018-12-15T04:49:05.569Z,-0.50
2018-12-15T04:51:33.938Z,-0.50
2018-12-15T04:54:02.249Z,-0.60
2018-12-15T04:56:31.961Z,-0.50
2018-12-15T04:59:00.405Z,-0.50
2018-12-15T05:01:28.726Z,-0.50
2018-12-15T05:03:57.094Z,-0.50
2018-12-15T05:06:25.432Z,-0.50
2018-12-15T05:08:53.880Z,-0.50
2018-12-15T05:11:22.290Z,-0.40
2018-12-15T05:13:50.673Z,-0.50
2018-12-15T05:16:19.120Z,-0.50
2018-12-15T05:18:47.456Z,-0.50
2018-12-15T05:21:15.824Z,-0.50
2018-12-15T05:23:44.178Z,-0.50
2018-12-15T05:26:12.509Z,-0.50
2018-12-15T05:28:40.870Z,-0.40
2018-12-15T05:31:09.188Z,-0.40
2018-12-15T05:33:37.791Z,-0.40
2018-12-15T05:36:06.100Z,-0.50
2018-12-15T05:38:34.595Z,-0.50
2018-12-15T05:41:03.025Z,-0.50
2018-12-15T05:43:31.401Z,-0.50
2018-12-15T05:45:59.711Z,-0.50
2018-12-15T05:48:28.063Z,-0.50
2018-12-15T05:50:56.375Z,-0.50
2018-12-15T05:53:24.728Z,-0.50
2018-12-15T05:55:53.067Z,-0.50
2018-12-15T05:58:21.435Z,-0.50
2018-12-15T06:00:49.768Z,-0.50
2018-12-15T06:03:18.151Z,-0.60
2018-12-15T06:05:46.499Z,-0.50
2018-12-15T06:08:14.927Z,-0.50
2018-12-15T06:10:43.252Z,-0.50
2018-12-15T06:13:11.658Z,-0.50
2018-12-15T06:15:40.180Z,-0.50
2018-12-15T06:18:08.487Z,-0.50
2018-12-15T06:20:36.840Z,-0.50
2018-12-15T06:23:05.190Z,-0.50
2018-12-15T06:25:33.540Z,-0.50
2018-12-15T06:28:01.902Z,-0.50
2018-12-15T06:30:30.698Z,-0.50
2018-12-15T06:32:59.119Z,-0.50
2018-12-15T06:35:27.469Z,-0.40
2018-12-15T06:37:56.324Z,-0.50
2018-12-15T06:40:25.570Z,-0.40
2018-12-15T06:42:55.510Z,-0.50
2018-12-15T06:45:23.849Z,-0.70
2018-12-15T06:47:52.220Z,-0.50
2018-12-15T06:50:20.553Z,-0.50
2018-12-15T06:52:48.933Z,-0.50
2018-12-15T06:55:17.364Z,-0.50
2018-12-15T06:57:45.711Z,-0.40
2018-12-15T07:00:14.048Z,-0.40
2018-12-15T07:02:42.399Z,-0.40
2018-12-15T07:05:10.820Z,-0.50
2018-12-15T07:07:39.187Z,-0.40
2018-12-15T07:10:07.686Z,-0.40
2018-12-15T07:12:36.103Z,-0.40
2018-12-15T07:15:04.751Z,-0.40
2018-12-15T07:17:33.099Z,-0.40
2018-12-15T07:20:01.436Z,-0.30
2018-12-15T07:22:29.809Z,-0.40
2018-12-15T07:24:58.147Z,-0.30
2018-12-15T07:27:26.508Z,-0.30
2018-12-15T07:29:54.988Z,-0.30
2018-12-15T07:32:23.388Z,-0.30
2018-12-15T07:34:51.731Z,-0.30
2018-12-15T07:37:20.283Z,-0.30
2018-12-15T07:39:48.663Z,-0.30
2018-12-15T07:42:16.993Z,-0.30
2018-12-15T07:44:45.352Z,-0.30
2018-12-15T07:47:13.669Z,-0.20
2018-12-15T07:49:42.133Z,-0.30
2018-12-15T07:52:10.447Z,-0.20
2018-12-15T07:54:39.036Z,-0.20
2018-12-15T07:57:07.396Z,-0.20
2018-12-15T07:59:35.777Z,-0.30
2018-12-15T08:02:04.294Z,-0.20
2018-12-15T08:04:32.675Z,-0.10
2018-12-15T08:07:01.108Z,-0.10
2018-12-15T08:09:29.536Z,-0.10
2018-12-15T08:12:03.274Z,-0.20
2018-12-15T08:14:31.718Z,-0.20
2018-12-15T08:17:00.086Z,-0.20
2018-12-15T08:19:28.415Z,-0.10
2018-12-15T08:21:56.787Z,-0.10
2018-12-15T08:24:25.936Z,-0.20
2018-12-15T08:26:54.247Z,-0.10
2018-12-15T08:29:23.229Z,-0.10
2018-12-15T08:31:51.594Z,-0.20
2018-12-15T08:34:19.953Z,-0.20
2018-12-15T08:36:48.312Z,-0.20
2018-12-15T08:39:16.745Z,-0.20
2018-12-15T08:41:45.217Z,-0.20
2018-12-15T08:44:13.596Z,-0.20
2018-12-15T08:46:41.927Z,-0.20
2018-12-15T08:49:10.364Z,-0.10
2018-12-15T08:51:38.943Z,-0.10
2018-12-15T08:54:07.322Z,-0.20
2018-12-15T08:56:35.855Z,-0.20
2018-12-15T08:59:05.588Z,-0.20
2018-12-15T09:01:33.975Z,-0.10
2018-12-15T09:04:02.351Z,-0.10
2018-12-15T09:06:30.678Z,-0.10
2018-12-15T09:08:59.116Z,-0.10
2018-12-15T09:11:27.523Z,-0.20
2018-12-15T09:13:55.947Z,-0.10
2018-12-15T09:16:26.575Z,-0.10
2018-12-15T09:18:54.677Z,-0.10
2018-12-15T09:21:23.016Z,-0.20
2018-12-15T09:23:51.375Z,-0.10
2018-12-15T09:26:19.755Z,-0.30
2018-12-15T09:28:48.100Z,-0.30
2018-12-15T09:31:16.628Z,-0.30
2018-12-15T09:33:45.142Z,-0.30
2018-12-15T09:36:13.656Z,-0.30
2018-12-15T09:38:42.012Z,-0.30
2018-12-15T09:41:10.381Z,-0.10
2018-12-15T09:43:38.921Z,-0.30
2018-12-15T09:46:07.337Z,-0.20
2018-12-15T09:48:35.708Z,-0.20
2018-12-15T09:51:04.072Z,0.00
2018-12-15T09:53:32.552Z,0.10
2018-12-15T09:56:00.924Z,0.20
2018-12-15T09:58:29.325Z,0.10
2018-12-15T10:00:57.887Z,-0.20
2018-12-15T10:03:26.212Z,0.00
2018-12-15T10:05:54.606Z,0.20
2018-12-15T10:08:22.984Z,0.20
2018-12-15T10:10:51.343Z,0.10
2018-12-15T10:13:19.793Z,0.20
2018-12-15T10:15:48.184Z,-0.10
2018-12-15T10:18:16.545Z,0.10
2018-12-15T10:20:44.961Z,0.20
2018-12-15T10:23:13.288Z,0.20
2018-12-15T10:25:41.616Z,0.10
2018-12-15T10:28:10.083Z,-0.20
2018-12-15T10:30:43.701Z,-0.20
2018-12-15T10:33:12.130Z,0.00
2018-12-15T10:35:40.603Z,0.00
2018-12-15T10:38:08.955Z,-0.20
2018-12-15T10:40:37.379Z,-0.20
2018-12-15T10:43:05.739Z,-0.10
2018-12-15T10:45:34.137Z,-0.10
2018-12-15T10:48:02.653Z,0.00
2018-12-15T10:50:31.026Z,0.00
2018-12-15T10:52:59.402Z,0.10
2018-12-15T10:55:27.834Z,0.10
2018-12-15T10:57:56.202Z,0.20
2018-12-15T11:00:26.918Z,0.10
2018-12-15T11:02:55.343Z,0.20
2018-12-15T11:05:24.026Z,0.10
2018-12-15T11:07:52.818Z,0.00
2018-12-15T11:10:21.259Z,0.10
2018-12-15T11:12:49.605Z,0.20
2018-12-15T11:15:17.989Z,0.30
2018-12-15T11:17:46.521Z,0.10
2018-12-15T11:20:15.009Z,0.00
2018-12-15T11:22:43.590Z,0.10
2018-12-15T11:25:11.951Z,0.00
2018-12-15T11:27:40.328Z,0.00
2018-12-15T11:30:08.782Z,-0.10
2018-12-15T11:32:37.179Z,0.00
2018-12-15T11:35:05.868Z,0.00
2018-12-15T11:37:34.279Z,0.00
2018-12-15T11:40:02.650Z,-0.10
2018-12-15T11:42:31.096Z,0.00
2018-12-15T11:44:59.688Z,0.00
2018-12-15T11:47:28.045Z,0.00
2018-12-15T11:49:56.601Z,0.00
2018-12-15T11:52:24.937Z,0.10
2018-12-15T11:54:53.276Z,0.00
2018-12-15T11:57:21.890Z,0.00
2018-12-15T11:59:50.232Z,0.00
2018-12-15T12:02:18.560Z,0.10
2018-12-15T12:04:46.914Z,0.10
2018-12-15T12:07:15.264Z,0.00
2018-12-15T12:09:43.617Z,0.10
2018-12-15T12:12:11.963Z,0.00
2018-12-15T12:14:40.388Z,0.00
2018-12-15T12:17:08.732Z,-0.10
2018-12-15T12:19:37.229Z,0.00
2018-12-15T12:22:06.032Z,0.10
2018-12-15T12:24:34.417Z,0.20
2018-12-15T12:27:02.796Z,0.30
2018-12-15T12:29:31.288Z,0.20
2018-12-15T12:31:59.616Z,0.30
2018-12-15T12:34:28.032Z,0.30
2018-12-15T12:36:56.380Z,0.30
2018-12-15T12:39:24.749Z,0.30
2018-12-15T12:41:53.128Z,0.30
2018-12-15T12:44:21.527Z,0.40
2018-12-15T12:46:49.865Z,0.30
2018-12-15T12:49:18.211Z,0.30
2018-12-15T12:51:46.636Z,0.30
2018-12-15T12:54:15.019Z,0.20
2018-12-15T12:56:43.584Z,0.30
2018-12-15T12:59:12.086Z,0.20
2018-12-15T13:01:40.408Z,0.20
2018-12-15T13:04:08.871Z,0.10
2018-12-15T13:06:37.500Z,0.30
2018-12-15T13:09:07.010Z,0.20
2018-12-15T13:11:35.372Z,0.30
2018-12-15T13:14:03.805Z,0.10
2018-12-15T13:16:32.167Z,0.30
2018-12-15T13:19:00.628Z,0.30
2018-12-15T13:21:28.998Z,0.20
2018-12-15T13:23:57.410Z,0.10
2018-12-15T13:26:25.771Z,0.10
2018-12-15T13:28:54.338Z,0.40
2018-12-15T13:31:22.707Z,0.40
2018-12-15T13:33:51.207Z,0.40
2018-12-15T13:36:19.599Z,0.50
2018-12-15T13:38:48.023Z,0.50
2018-12-15T13:41:16.440Z,0.40
2018-12-15T13:43:44.772Z,0.30
2018-12-15T13:46:13.131Z,0.20
2018-12-15T13:48:41.523Z,0.20
2018-12-15T13:51:09.880Z,0.30
2018-12-15T13:53:38.311Z,0.40
2018-12-15T13:56:06.724Z,0.30
2018-12-15T13:58:35.055Z,0.40
2018-12-15T14:01:03.413Z,0.40
2018-12-15T14:03:31.936Z,0.40
2018-12-15T14:06:00.369Z,0.20
2018-12-15T14:08:28.868Z,0.40
2018-12-15T14:10:57.459Z,0.50
2018-12-15T14:13:25.799Z,0.50
2018-12-15T14:15:54.168Z,0.50
2018-12-15T14:18:22.555Z,0.40
2018-12-15T14:20:51.053Z,0.30
2018-12-15T14:23:19.453Z,0.20
2018-12-15T14:25:47.804Z,0.30
2018-12-15T14:28:16.152Z,0.30
2018-12-15T14:30:44.588Z,0.30
2018-12-15T14:33:13.015Z,0.30
2018-12-15T14:35:41.367Z,0.40
2018-12-15T14:38:09.770Z,0.30
2018-12-15T14:40:38.152Z,0.30
2018-12-15T14:43:08.622Z,0.20
2018-12-15T14:45:37.065Z,0.30
2018-12-15T14:48:05.421Z,0.10
2018-12-15T14:50:33.829Z,0.20
2018-12-15T14:53:02.172Z,0.20
2018-12-15T14:55:30.515Z,0.20
2018-12-15T14:57:58.943Z,0.30
2018-12-15T15:00:27.276Z,0.30
2018-12-15T15:02:55.663Z,0.30
2018-12-15T15:05:24.096Z,0.30
2018-12-15T15:07:52.460Z,0.30
2018-12-15T15:10:20.876Z,0.20
2018-12-15T15:12:49.315Z,0.00
2018-12-15T15:15:17.779Z,0.00
2018-12-15T15:17:46.165Z,0.20
2018-12-15T15:20:14.889Z,0.20
2018-12-15T15:22:43.234Z,0.20
2018-12-15T15:25:11.596Z,0.20
2018-12-15T15:27:40.352Z,0.20
2018-12-15T15:30:09.544Z,0.20
2018-12-15T15:32:37.980Z,0.20
2018-12-15T15:35:07.570Z,0.30
2018-12-15T15:37:36.059Z,0.20
2018-12-15T15:40:04.846Z,0.20
2018-12-15T15:42:33.244Z,0.20
2018-12-15T15:45:01.728Z,0.20
2018-12-15T15:47:30.192Z,0.20
2018-12-15T15:49:58.583Z,0.20
2018-12-15T15:52:26.967Z,0.20
2018-12-15T15:54:55.411Z,0.30
2018-12-15T15:57:23.818Z,0.20
2018-12-15T15:59:52.629Z,0.10
2018-12-15T16:02:21.108Z,0.20
2018-12-15T16:04:49.473Z,0.00
2018-12-15T16:07:18.212Z,0.10
2018-12-15T16:09:46.679Z,0.10
2018-12-15T16:12:15.125Z,0.20
2018-12-15T16:14:43.498Z,0.20
2018-12-15T16:17:11.865Z,0.10
2018-12-15T16:19:40.207Z,-0.10
2018-12-15T16:22:08.631Z,0.00
2018-12-15T16:24:36.995Z,0.00
2018-12-15T16:27:05.368Z,0.00
2018-12-15T16:29:33.721Z,0.00
2018-12-15T16:32:02.203Z,0.10
2018-12-15T16:34:30.550Z,0.10
2018-12-15T16:36:58.975Z,0.10
2018-12-15T16:39:27.370Z,0.00
2018-12-15T16:41:55.705Z,0.00
2018-12-15T16:44:24.167Z,0.00
2018-12-15T16:46:52.631Z,-0.10
2018-12-15T16:49:20.965Z,-0.10
2018-12-15T16:51:49.384Z,0.00
2018-12-15T16:54:17.777Z,0.00
2018-12-15T16:56:46.151Z,-0.20
2018-12-15T16:59:14.570Z,0.00
2018-12-15T17:01:42.890Z,0.00
2018-12-15T17:04:11.267Z,-0.20
2018-12-15T17:06:40.091Z,0.00
2018-12-15T17:09:09.422Z,-0.10
2018-12-15T17:11:38.043Z,-0.10
2018-12-15T17:14:06.436Z,0.00
2018-12-15T17:16:34.791Z,0.00
2018-12-15T17:19:03.224Z,-0.10
2018-12-15T17:21:31.791Z,-0.10
2018-12-15T17:24:00.177Z,-0.10
2018-12-15T17:26:28.731Z,-0.20
2018-12-15T17:28:57.215Z,-0.10
2018-12-15T17:31:25.789Z,-0.10
2018-12-15T17:33:54.325Z,-0.10
2018-12-15T17:36:22.672Z,-0.20
2018-12-15T17:38:51.068Z,-0.10
2018-12-15T17:41:19.426Z,-0.10
2018-12-15T17:43:48.138Z,-0.20
2018-12-15T17:46:16.519Z,-0.10
2018-12-15T17:48:44.980Z,-0.10
2018-12-15T17:51:13.388Z,-0.20
2018-12-15T17:53:41.775Z,-0.20
2018-12-15T17:56:10.260Z,-0.30
2018-12-15T17:58:38.693Z,-0.20
2018-12-15T18:01:07.133Z,-0.10
2018-12-15T18:03:35.539Z,-0.10
2018-12-15T18:06:03.923Z,-0.10
2018-12-15T18:08:32.435Z,-0.10
2018-12-15T18:11:00.900Z,-0.30
2018-12-15T18:13:29.312Z,-0.10
2018-12-15T18:15:58.013Z,-0.20
2018-12-15T18:18:26.428Z,-0.30
2018-12-15T18:20:54.768Z,-0.20
2018-12-15T18:23:23.267Z,-0.30
2018-12-15T18:25:51.671Z,-0.30
2018-12-15T18:28:20.251Z,-0.30
2018-12-15T18:30:48.656Z,-0.30
2018-12-15T18:33:17.062Z,-0.30
2018-12-15T18:35:45.543Z,-0.30
2018-12-15T18:38:14.041Z,-0.40
2018-12-15T18:40:42.465Z,-0.40
2018-12-15T18:43:10.801Z,-0.30
2018-12-15T18:45:39.351Z,-0.30
2018-12-15T18:48:07.811Z,-0.30
2018-12-15T18:50:36.724Z,-0.30
2018-12-15T18:53:05.130Z,-0.40
2018-12-15T18:55:33.508Z,-0.60
2018-12-15T18:58:01.931Z,-0.40
2018-12-15T19:00:30.368Z,-0.40
2018-12-15T19:02:58.891Z,-0.40
2018-12-15T19:05:27.247Z,-0.50
2018-12-15T19:07:56.364Z,-0.50
2018-12-15T19:10:24.746Z,-0.50
2018-12-15T19:12:53.092Z,-0.60
2018-12-15T19:15:21.607Z,-0.70
2018-12-15T19:17:49.972Z,-0.70
2018-12-15T19:20:18.604Z,-0.70
2018-12-15T19:22:46.998Z,-0.70
2018-12-15T19:25:15.428Z,-0.70
2018-12-15T19:27:43.844Z,-0.70
2018-12-15T19:30:12.736Z,-0.70
2018-12-15T19:32:41.676Z,-0.80
2018-12-15T19:35:10.135Z,-0.90
2018-12-15T19:37:38.734Z,-1.00
2018-12-15T19:40:07.239Z,-1.20
2018-12-15T19:42:35.701Z,-1.00
2018-12-15T19:45:04.575Z,-1.10
2018-12-15T19:47:32.931Z,-1.20
2018-12-15T19:50:01.513Z,-1.20
2018-12-15T19:52:29.904Z,-1.20
2018-12-15T19:54:58.335Z,-1.20
2018-12-15T19:57:26.690Z,-1.20
2018-12-15T19:59:55.104Z,-1.30
2018-12-15T20:02:23.480Z,-1.30
2018-12-15T20:04:51.875Z,-1.40
2018-12-15T20:07:21.192Z,-1.40
2018-12-15T20:09:49.615Z,-1.40
2018-12-15T20:12:17.999Z,-1.40
2018-12-15T20:14:46.397Z,-1.50
2018-12-15T20:17:14.764Z,-1.60
2018-12-15T20:19:43.280Z,-1.60
2018-12-15T20:22:11.684Z,-1.70
2018-12-15T20:24:40.208Z,-1.70
2018-12-15T20:27:08.810Z,-1.60
2018-12-15T20:29:37.243Z,-1.70
2018-12-15T20:32:05.620Z,-1.60
2018-12-15T20:34:34.009Z,-1.60
2018-12-15T20:37:02.353Z,-1.60
2018-12-15T20:39:30.760Z,-1.60
2018-12-15T20:41:59.162Z,-1.70
2018-12-15T20:44:28.421Z,-1.60
2018-12-15T20:46:57.013Z,-1.60
2018-12-15T20:49:25.870Z,-1.50
2018-12-15T20:51:55.494Z,-1.50
2018-12-15T20:54:24.073Z,-1.50
2018-12-15T20:56:52.432Z,-1.60
2018-12-15T20:59:20.898Z,-1.60
2018-12-15T21:01:49.371Z,-1.60
2018-12-15T21:04:17.741Z,-1.60
2018-12-15T21:06:46.363Z,-1.60
2018-12-15T21:09:14.725Z,-1.60
2018-12-15T21:11:43.148Z,-1.60
2018-12-15T21:14:11.553Z,-1.60
2018-12-15T21:16:39.895Z,-1.60
2018-12-15T21:19:08.424Z,-1.70
2018-12-15T21:21:37.159Z,-1.70
2018-12-15T21:24:05.536Z,-1.70
2018-12-15T21:26:33.933Z,-1.60
2018-12-15T21:29:02.336Z,-1.80
2018-12-15T21:31:30.736Z,-1.80
2018-12-15T21:33:59.095Z,-1.80
2018-12-15T21:36:27.799Z,-1.80
2018-12-15T21:38:56.655Z,-1.90
2018-12-15T21:41:25.144Z,-1.90
2018-12-15T21:43:53.721Z,-1.90
2018-12-15T21:46:22.233Z,-1.90
2018-12-15T21:48:50.659Z,-2.00
2018-12-15T21:51:19.879Z,-2.10
2018-12-15T21:53:48.233Z,-1.90
2018-12-15T21:56:16.600Z,-2.00
2018-12-15T21:58:45.248Z,-2.10
2018-12-15T22:01:13.654Z,-2.00
2018-12-15T22:03:42.024Z,-2.30
2018-12-15T22:06:10.570Z,-2.30
2018-12-15T22:08:39.175Z,-2.30
2018-12-15T22:11:07.620Z,-2.20
2018-12-15T22:13:36.011Z,-2.30
2018-12-15T22:16:04.440Z,-2.30
2018-12-15T22:18:32.818Z,-2.30
2018-12-15T22:21:01.204Z,-2.30
2018-12-15T22:23:29.707Z,-2.30
2018-12-15T22:25:58.049Z,-2.10
2018-12-15T22:28:26.621Z,-2.00
2018-12-15T22:30:55.014Z,-2.10
2018-12-15T22:33:23.433Z,-2.00
2018-12-15T22:35:51.787Z,-2.10
2018-12-15T22:38:20.246Z,-2.00
2018-12-15T22:40:48.704Z,-2.10
2018-12-15T22:43:17.099Z,-2.00
2018-12-15T22:45:45.732Z,-1.80
2018-12-15T22:48:14.179Z,-2.00
2018-12-15T22:50:42.611Z,-1.80
2018-12-15T22:53:11.055Z,-1.80
2018-12-15T22:55:39.876Z,-1.90
2018-12-15T22:58:08.400Z,-2.00
2018-12-15T23:00:42.264Z,-1.80
2018-12-15T23:03:10.694Z,-1.70
2018-12-15T23:05:39.994Z,-1.80
2018-12-15T23:08:08.633Z,-2.00
2018-12-15T23:10:37.407Z,-2.10
2018-12-15T23:13:07.301Z,-1.90
2018-12-15T23:15:35.837Z,-1.70
2018-12-15T23:18:04.217Z,-1.80
2018-12-15T23:20:32.570Z,-1.90
2018-12-15T23:23:00.996Z,-2.00
2018-12-15T23:25:29.379Z,-1.90
2018-12-15T23:27:59.006Z,-2.10
2018-12-15T23:30:27.708Z,-2.10
2018-12-15T23:32:56.130Z,-2.00
2018-12-15T23:35:24.536Z,-2.10
2018-12-15T23:37:52.923Z,-2.20
2018-12-15T23:40:21.296Z,-2.10
2018-12-15T23:42:49.673Z,-2.20
2018-12-15T23:45:18.008Z,-2.20
2018-12-15T23:47:46.416Z,-2.20
2018-12-15T23:50:14.767Z,-2.10
2018-12-15T23:52:43.182Z,-2.10
2018-12-15T23:55:11.514Z,-2.10
2018-12-15T23:57:40.503Z,-2.10
